Time;durP1;ratioP1;P1;durP2;ratioP2;P2;SDS_P1;SDS_P2;PMS_P1;PMS_P2;Temp;Humidity;BMP_temperature;BMP_pressure;BME280_temperature;BME280_humidity;BME280_pressure;Samples;Min_cycle;Max_cycle;Signal;HPM_P1;HPM_P2
2022/07/11 00:02:20;;;;;;;7.07;3.03;;;16.30;99.90;;;;;;4969937;28;20037;-64
2022/07/11 00:04:46;;;;;;;6.55;2.90;;;16.30;99.90;;;;;;4963086;28;20034;-64
2022/07/11 00:07:12;;;;;;;10.23;2.95;;;16.30;99.90;;;;;;4954072;28;20058;-64
2022/07/11 00:09:38;;;;;;;7.07;2.90;;;16.30;99.90;;;;;;4968972;28;20038;-63
2022/07/11 00:12:05;;;;;;;7.32;2.97;;;16.30;99.90;;;;;;4953035;28;20046;-64
2022/07/11 00:14:30;;;;;;;7.10;2.95;;;16.30;99.90;;;;;;4969875;28;20133;-64
2022/07/11 00:16:56;;;;;;;8.30;2.95;;;16.30;99.90;;;;;;4971903;28;20192;-64
2022/07/11 00:19:22;;;;;;;4.32;3.10;;;16.30;99.90;;;;;;4971608;28;20049;-64
2022/07/11 00:21:49;;;;;;;8.60;3.10;;;16.30;99.90;;;;;;4974962;28;20034;-64
2022/07/11 00:24:17;;;;;;;5.25;3.00;;;16.30;99.90;;;;;;4975680;28;20121;-65
2022/07/11 00:26:43;;;;;;;7.03;3.08;;;16.20;99.90;;;;;;4953313;28;20098;-64
2022/07/11 00:29:09;;;;;;;9.98;3.30;;;16.20;99.90;;;;;;4963366;28;20039;-64
2022/07/11 00:31:35;;;;;;;8.77;3.30;;;16.30;99.90;;;;;;4974684;28;20049;-64
2022/07/11 00:34:00;;;;;;;4.82;3.15;;;16.20;99.90;;;;;;4969209;28;20042;-64
2022/07/11 00:36:26;;;;;;;7.47;3.47;;;16.20;99.90;;;;;;4972379;28;20086;-64
2022/07/11 00:38:52;;;;;;;8.32;3.50;;;16.20;99.90;;;;;;4974786;28;20561;-64
2022/07/11 00:41:18;;;;;;;6.95;3.55;;;16.10;99.90;;;;;;4957474;28;20089;-64
2022/07/11 00:43:52;;;;;;;6.13;3.50;;;16.10;99.90;;;;;;4967619;28;20070;-64
2022/07/11 00:46:18;;;;;;;8.10;3.58;;;16.10;99.90;;;;;;4968338;28;20042;-64
2022/07/11 00:48:43;;;;;;;5.72;3.60;;;16.10;99.90;;;;;;4974351;28;20077;-64
2022/07/11 00:51:09;;;;;;;5.55;3.33;;;16.10;99.90;;;;;;4962106;28;20032;-65
2022/07/11 00:53:35;;;;;;;7.07;3.10;;;16.10;99.90;;;;;;4972818;28;20598;-64
2022/07/11 00:56:01;;;;;;;7.20;3.60;;;16.10;99.90;;;;;;4974595;28;20041;-64
2022/07/11 00:58:27;;;;;;;5.82;3.47;;;16.10;99.90;;;;;;4974763;28;20038;-64
2022/07/11 01:00:53;;;;;;;5.70;3.00;;;16.10;99.90;;;;;;4956549;28;20114;-64
2022/07/11 01:03:19;;;;;;;9.43;3.53;;;16.00;99.90;;;;;;4970136;28;20053;-64
2022/07/11 01:05:44;;;;;;;6.65;3.70;;;16.00;99.90;;;;;;4974774;28;20045;-64
2022/07/11 01:08:10;;;;;;;7.95;3.63;;;16.00;99.90;;;;;;4956014;28;20031;-64
2022/07/11 01:10:36;;;;;;;6.18;3.55;;;16.00;99.90;;;;;;4966929;28;20057;-64
2022/07/11 01:13:01;;;;;;;6.45;3.65;;;16.00;99.90;;;;;;4974269;28;20038;-64
2022/07/11 01:15:27;;;;;;;5.28;3.33;;;15.90;99.90;;;;;;4970401;28;20115;-64
2022/07/11 01:17:53;;;;;;;6.30;3.63;;;15.90;99.90;;;;;;4969019;28;20042;-64
2022/07/11 01:20:24;;;;;;;9.25;3.92;;;15.90;99.90;;;;;;4974121;28;20074;-64
2022/07/11 01:22:56;;;;;;;6.65;3.80;;;15.90;99.90;;;;;;4974401;28;20070;-64
2022/07/11 01:25:33;;;;;;;10.43;3.72;;;15.90;99.90;;;;;;4965573;28;20113;-64
2022/07/11 01:28:03;;;;;;;7.93;3.97;;;15.90;99.90;;;;;;4973699;28;20047;-64
2022/07/11 01:30:32;;;;;;;10.47;4.70;;;15.80;99.90;;;;;;4974491;28;20035;-64
2022/07/11 01:32:58;;;;;;;11.45;4.53;;;15.80;99.90;;;;;;4968220;28;20046;-64
2022/07/11 01:35:25;;;;;;;9.05;4.25;;;15.80;99.90;;;;;;4969864;28;20467;-64
2022/07/11 01:37:50;;;;;;;8.27;3.88;;;15.80;99.90;;;;;;4973947;28;20039;-64
2022/07/11 01:40:17;;;;;;;6.97;4.03;;;15.80;99.90;;;;;;4970791;28;20054;-64
2022/07/11 01:42:43;;;;;;;10.75;4.03;;;15.80;99.90;;;;;;4962393;28;20093;-64
2022/07/11 01:45:10;;;;;;;11.05;4.13;;;15.80;99.90;;;;;;4973695;28;20038;-64
2022/07/11 01:47:36;;;;;;;12.55;4.22;;;15.80;99.90;;;;;;4974100;28;20051;-64
2022/07/11 01:50:02;;;;;;;11.18;4.30;;;15.70;99.90;;;;;;4963279;28;20681;-64
2022/07/11 01:52:28;;;;;;;8.23;4.15;;;15.80;99.90;;;;;;4973022;28;20148;-64
2022/07/11 01:54:54;;;;;;;9.05;4.45;;;15.70;99.90;;;;;;4973831;28;20511;-64
2022/07/11 01:57:20;;;;;;;7.20;4.10;;;15.80;99.90;;;;;;4961830;28;20047;-64
2022/07/11 01:59:46;;;;;;;12.15;4.60;;;15.70;99.90;;;;;;4962286;28;20039;-64
2022/07/11 02:02:12;;;;;;;7.40;4.38;;;15.70;99.90;;;;;;4973211;28;20038;-64
2022/07/11 02:04:37;;;;;;;7.68;4.72;;;15.70;99.90;;;;;;4972939;28;20105;-64
2022/07/11 02:07:03;;;;;;;9.05;4.57;;;15.70;99.90;;;;;;4963465;28;20031;-65
2022/07/11 02:09:29;;;;;;;11.52;5.47;;;15.70;99.90;;;;;;4969608;28;20042;-64
2022/07/11 02:11:54;;;;;;;10.32;5.20;;;15.70;99.90;;;;;;4972135;28;20462;-64
2022/07/11 02:14:21;;;;;;;8.32;4.90;;;15.70;99.90;;;;;;4965473;28;20051;-63
2022/07/11 02:16:47;;;;;;;11.25;4.65;;;15.60;99.90;;;;;;4964380;28;20035;-64
2022/07/11 02:19:13;;;;;;;6.05;4.50;;;15.60;99.90;;;;;;4972573;28;20046;-64
2022/07/11 02:21:39;;;;;;;11.45;4.93;;;15.60;99.90;;;;;;4972347;28;20035;-64
2022/07/11 02:24:04;;;;;;;6.97;4.55;;;15.70;99.90;;;;;;4964405;28;20491;-64
2022/07/11 02:26:30;;;;;;;12.80;4.50;;;15.60;99.90;;;;;;4971238;28;20109;-64
2022/07/11 02:28:57;;;;;;;7.88;4.90;;;15.70;99.90;;;;;;4972661;28;20041;-64
2022/07/11 02:31:22;;;;;;;11.02;4.68;;;15.60;99.90;;;;;;4964559;28;20046;-64
2022/07/11 02:33:48;;;;;;;8.15;4.55;;;15.60;99.90;;;;;;4971605;28;20039;-64
2022/07/11 02:36:13;;;;;;;10.18;4.38;;;15.60;99.90;;;;;;4971939;28;20047;-64
2022/07/11 02:38:39;;;;;;;12.10;4.45;;;15.60;99.90;;;;;;4965158;28;20544;-64
2022/07/11 02:41:05;;;;;;;9.40;4.45;;;15.60;99.90;;;;;;4965702;28;20035;-64
2022/07/11 02:43:31;;;;;;;10.13;4.70;;;15.60;99.90;;;;;;4971970;28;20105;-65
2022/07/11 02:45:56;;;;;;;10.60;5.07;;;15.60;99.90;;;;;;4964887;28;20040;-64
2022/07/11 02:48:22;;;;;;;10.52;4.47;;;15.60;99.90;;;;;;4955491;28;20043;-64
2022/07/11 02:50:48;;;;;;;8.13;4.47;;;15.60;99.90;;;;;;4971471;28;20049;-64
2022/07/11 02:53:14;;;;;;;13.52;4.88;;;15.60;99.90;;;;;;4972631;28;20051;-64
2022/07/11 02:55:39;;;;;;;11.18;4.60;;;15.60;99.90;;;;;;4967110;28;20046;-64
2022/07/11 02:58:05;;;;;;;12.00;5.03;;;15.60;99.90;;;;;;4967947;28;20489;-64
2022/07/11 03:00:31;;;;;;;8.38;4.45;;;15.60;99.90;;;;;;4969951;28;20051;-64
2022/07/11 03:02:57;;;;;;;10.65;5.03;;;15.60;99.90;;;;;;4972245;28;20126;-64
2022/07/11 03:05:22;;;;;;;13.50;5.57;;;15.60;99.90;;;;;;4963745;28;20043;-64
2022/07/11 03:07:48;;;;;;;9.43;5.32;;;15.60;99.90;;;;;;4972012;28;20045;-64
2022/07/11 03:10:14;;;;;;;11.73;5.20;;;15.60;99.90;;;;;;4972456;28;20042;-64
2022/07/11 03:12:41;;;;;;;9.55;5.22;;;15.60;99.90;;;;;;4961744;28;20043;-64
2022/07/11 03:15:07;;;;;;;13.38;4.80;;;15.60;99.90;;;;;;4971672;28;20049;-64
2022/07/11 03:17:33;;;;;;;13.15;5.50;;;15.60;99.90;;;;;;4971921;28;20035;-64
2022/07/11 03:20:00;;;;;;;8.25;4.75;;;15.60;99.90;;;;;;4969817;28;20049;-64
2022/07/11 03:22:26;;;;;;;12.75;5.63;;;15.60;99.90;;;;;;4957038;28;20073;-64
2022/07/11 03:24:51;;;;;;;10.48;4.80;;;15.60;99.90;;;;;;4971593;28;20421;-64
2022/07/11 03:27:17;;;;;;;12.48;4.70;;;15.60;99.90;;;;;;4971073;28;20046;-64
2022/07/11 03:29:43;;;;;;;8.35;4.60;;;15.60;99.90;;;;;;4960008;28;20034;-64
2022/07/11 03:32:09;;;;;;;11.63;4.93;;;15.50;99.90;;;;;;4969451;28;20578;-64
2022/07/11 03:34:35;;;;;;;13.45;5.05;;;15.50;99.90;;;;;;4961961;28;20050;-63
2022/07/11 03:37:01;;;;;;;9.18;4.95;;;15.50;99.90;;;;;;4962296;28;20066;-64
2022/07/11 03:39:27;;;;;;;11.68;4.70;;;15.50;99.90;;;;;;4963032;28;20047;-64
2022/07/11 03:41:53;;;;;;;10.23;4.45;;;15.50;99.90;;;;;;4971402;28;20089;-63
2022/07/11 03:44:19;;;;;;;12.07;4.70;;;15.50;99.90;;;;;;4968983;28;20038;-64
2022/07/11 03:46:44;;;;;;;10.07;4.75;;;15.50;99.90;;;;;;4962772;28;20090;-65
2022/07/11 03:49:10;;;;;;;11.18;4.90;;;15.50;99.90;;;;;;4953318;28;20464;-64
2022/07/11 03:51:36;;;;;;;11.25;5.10;;;15.50;99.90;;;;;;4969510;28;20042;-64
2022/07/11 03:54:02;;;;;;;9.52;4.57;;;15.50;99.90;;;;;;4965913;28;20047;-64
2022/07/11 03:56:27;;;;;;;11.52;4.80;;;15.50;99.90;;;;;;4967541;28;20035;-63
2022/07/11 03:58:53;;;;;;;13.05;4.97;;;15.50;99.90;;;;;;4966699;28;20063;-65
2022/07/11 04:01:19;;;;;;;11.20;5.10;;;15.50;99.90;;;;;;4960880;28;20035;-64
2022/07/11 04:03:46;;;;;;;14.00;4.90;;;15.50;99.90;;;;;;4964109;28;20049;-64
2022/07/11 04:06:12;;;;;;;8.38;4.60;;;15.50;99.90;;;;;;4971071;28;20034;-64
2022/07/11 04:08:38;;;;;;;10.75;4.93;;;15.50;99.90;;;;;;4971020;28;20060;-63
2022/07/11 04:11:03;;;;;;;9.52;4.25;;;15.50;99.90;;;;;;4960117;28;20066;-64
2022/07/11 04:13:30;;;;;;;9.93;4.68;;;15.50;99.90;;;;;;4965962;28;20038;-64
2022/07/11 04:15:56;;;;;;;9.73;4.35;;;15.50;99.90;;;;;;4971296;28;20070;-64
2022/07/11 04:18:22;;;;;;;9.82;4.53;;;15.60;99.90;;;;;;4962557;28;20071;-64
2022/07/11 04:20:49;;;;;;;8.45;4.32;;;15.60;99.90;;;;;;4965080;28;20042;-63
2022/07/11 04:23:17;;;;;;;11.82;4.65;;;15.60;99.90;;;;;;4956805;28;20062;-64
2022/07/11 04:25:43;;;;;;;10.88;4.50;;;15.60;99.90;;;;;;4970601;28;20606;-64
2022/07/11 04:30:44;;;;;;;11.13;4.63;;;15.70;99.90;;;;;;5455958;23;20055;-65
2022/07/11 04:33:10;;;;;;;9.70;4.43;;;15.70;99.90;;;;;;4932647;28;20039;-66
2022/07/11 04:38:11;;;;;;;10.63;4.80;;;15.80;99.90;;;;;;5800049;23;20057;-66
2022/07/11 04:40:36;;;;;;;9.23;4.70;;;15.90;99.90;;;;;;4992674;28;20042;-66
2022/07/11 04:43:02;;;;;;;9.98;5.00;;;15.90;99.90;;;;;;4992523;28;20109;-65
2022/07/11 05:11:23;;;;;;;5.00;3.55;;;16.20;99.90;;;;;;5198287;23;20062;-66
2022/07/11 05:13:48;;;;;;;6.93;3.50;;;16.20;99.90;;;;;;4944183;29;20485;-66
2022/07/11 05:34:25;;;;;;;6.22;3.20;;;16.20;99.90;;;;;;5742269;23;20897;-67
2022/07/11 05:36:51;;;;;;;5.25;3.00;;;16.20;99.90;;;;;;4941828;29;20415;-67
2022/07/11 05:39:16;;;;;;;3.78;2.75;;;16.20;99.90;;;;;;4934541;29;20043;-65
2022/07/11 05:41:42;;;;;;;4.72;3.20;;;16.20;99.90;;;;;;4952878;29;20036;-67
2022/07/11 05:51:54;;;;;;;5.82;2.63;;;16.30;99.90;;;;;;5229743;23;20058;-67
2022/07/11 05:54:20;;;;;;;5.30;2.30;;;16.30;99.90;;;;;;4991353;28;20085;-66
2022/07/11 05:56:45;;;;;;;4.20;2.40;;;16.40;99.90;;;;;;4990019;28;20053;-66
2022/07/11 05:59:11;;;;;;;3.30;1.90;;;16.40;99.90;;;;;;4985286;28;20380;-66
2022/07/11 06:01:36;;;;;;;2.90;2.13;;;16.40;99.90;;;;;;4980779;28;20043;-67
2022/07/11 06:04:02;;;;;;;3.58;2.47;;;16.40;99.90;;;;;;4980397;28;20042;-65
2022/07/11 06:34:57;;;;;;;2.00;1.20;;;16.90;99.90;;;;;;5528814;23;20055;-66
2022/07/11 06:39:58;;;;;;;2.13;1.27;;;16.80;99.90;;;;;;5037799;23;20046;-66
2022/07/11 06:42:24;;;;;;;2.25;1.13;;;16.80;99.90;;;;;;5402799;23;20002;-65
2022/07/11 06:48:45;;;;;;;2.80;1.40;;;16.90;99.90;;;;;;5227003;23;20058;-67
2022/07/11 06:51:10;;;;;;;1.60;1.30;;;17.00;99.90;;;;;;4973628;28;20043;-66
2022/07/11 06:56:11;;;;;;;2.42;1.50;;;17.20;99.90;;;;;;5540480;23;20431;-65
2022/07/11 06:58:37;;;;;;;3.50;1.30;;;17.30;99.90;;;;;;4938842;28;20051;-66
2022/07/11 07:01:05;;;;;;;1.85;1.17;;;17.40;99.90;;;;;;4947027;28;20042;-66
2022/07/11 07:03:32;;;;;;;2.97;1.30;;;17.50;99.90;;;;;;4952807;28;20121;-66
2022/07/11 07:05:58;;;;;;;1.85;1.15;;;17.60;99.90;;;;;;4948901;28;20038;-65
2022/07/11 07:19:51;;;;;;;1.00;0.85;;;17.90;99.90;;;;;;5205331;23;20050;-66
2022/07/11 07:25:28;;;;;;;2.35;1.00;;;17.90;99.90;;;;;;4998481;23;20039;-65
2022/07/11 07:27:54;;;;;;;1.40;0.90;;;18.00;99.90;;;;;;4936388;28;20059;-67
2022/07/11 07:39:52;;;;;;;1.02;0.90;;;18.50;99.90;;;;;;5961516;23;20044;-66
2022/07/11 07:45:11;;;;;;;2.28;1.10;;;18.60;99.90;;;;;;5236290;23;20060;-68
2022/07/11 07:52:41;;;;;;;3.47;0.60;;;18.50;99.90;;;;;;4938478;29;20048;-67
2022/07/11 07:55:55;;;;;;;1.38;0.70;;;18.50;99.90;;;;;;4939612;29;20039;-65
2022/07/11 07:58:48;;;;;;;2.08;0.88;;;18.70;99.90;;;;;;5169448;23;20110;-66
2022/07/11 08:03:58;;;;;;;2.05;0.60;;;19.00;99.90;;;;;;4968452;28;20318;-66
2022/07/11 08:06:23;;;;;;;1.85;0.80;;;19.20;99.90;;;;;;4981045;28;20038;-66
2022/07/11 08:08:49;;;;;;;1.67;0.82;;;19.10;99.90;;;;;;4934540;29;20558;-66
2022/07/11 08:13:45;;;;;;;1.17;0.43;;;19.00;99.90;;;;;;4979735;28;20517;-65
2022/07/11 08:16:10;;;;;;;1.30;0.68;;;18.90;99.90;;;;;;4982959;28;20038;-65
2022/07/11 08:18:36;;;;;;;3.08;0.70;;;18.90;99.90;;;;;;4989937;28;20051;-65
2022/07/11 08:21:02;;;;;;;1.65;1.00;;;19.00;99.90;;;;;;4986393;28;20066;-65
2022/07/11 08:23:28;;;;;;;0.82;0.63;;;19.10;99.90;;;;;;4968947;28;20035;-65
2022/07/11 08:25:54;;;;;;;0.70;0.60;;;19.10;99.90;;;;;;4975647;28;20031;-65
2022/07/11 08:28:19;;;;;;;1.20;0.60;;;19.10;99.90;;;;;;4963288;28;20043;-65
2022/07/11 08:30:45;;;;;;;0.80;0.70;;;18.90;99.90;;;;;;4980948;28;20043;-65
2022/07/11 08:33:11;;;;;;;0.90;0.77;;;18.90;99.90;;;;;;4963628;28;20035;-65
2022/07/11 08:35:37;;;;;;;1.70;0.90;;;18.80;99.90;;;;;;4958986;28;20101;-64
2022/07/11 08:38:02;;;;;;;3.42;1.10;;;18.80;99.90;;;;;;4965100;28;20329;-65
2022/07/11 08:40:28;;;;;;;1.63;0.90;;;18.80;99.90;;;;;;4964132;28;20047;-65
2022/07/11 08:42:59;;;;;;;1.45;0.90;;;18.90;99.90;;;;;;4964199;28;20118;-64
2022/07/11 08:45:31;;;;;;;0.93;0.68;;;19.10;99.90;;;;;;4963904;28;20113;-65
2022/07/11 08:48:00;;;;;;;1.40;0.50;;;19.10;99.90;;;;;;4960382;28;20579;-64
2022/07/11 08:50:27;;;;;;;0.73;0.60;;;19.00;99.90;;;;;;4973998;28;20094;-65
2022/07/11 08:52:58;;;;;;;0.32;0.30;;;19.00;99.90;;;;;;4974398;28;20050;-65
2022/07/11 08:55:24;;;;;;;3.55;0.65;;;19.10;99.90;;;;;;4964559;28;20042;-65
2022/07/11 08:57:50;;;;;;;1.00;0.40;;;19.10;99.90;;;;;;4963735;28;20097;-65
2022/07/11 09:00:16;;;;;;;0.85;0.55;;;19.20;99.90;;;;;;4962913;28;20027;-65
2022/07/11 09:02:43;;;;;;;1.92;0.70;;;19.60;99.90;;;;;;4967133;28;20047;-65
2022/07/11 09:05:09;;;;;;;1.33;0.80;;;20.00;99.90;;;;;;4965599;28;20041;-65
2022/07/11 09:07:42;;;;;;;1.48;1.10;;;20.20;99.90;;;;;;4968718;28;20403;-65
2022/07/11 09:10:08;;;;;;;1.15;0.90;;;19.80;99.90;;;;;;4963095;28;20039;-65
2022/07/11 09:12:34;;;;;;;1.90;1.25;;;19.50;99.90;;;;;;4974228;28;20034;-65
2022/07/11 09:15:00;;;;;;;1.58;1.05;;;19.40;99.90;;;;;;4964470;28;20047;-65
2022/07/11 09:17:28;;;;;;;3.30;0.82;;;19.20;99.90;;;;;;4965899;28;20051;-65
2022/07/11 09:19:54;;;;;;;1.50;0.75;;;19.10;99.90;;;;;;4962048;28;20033;-64
2022/07/11 09:25:31;;;;;;;0.65;0.55;;;19.20;99.90;;;;;;4968687;28;20411;-64
2022/07/11 09:28:05;;;;;;;0.93;0.65;;;19.30;99.90;;;;;;4967158;28;20042;-65
2022/07/11 09:30:43;;;;;;;4.50;1.38;;;19.50;99.90;;;;;;4966005;28;20054;-65
2022/07/11 09:33:10;;;;;;;2.47;0.90;;;19.60;99.90;;;;;;4959986;28;20058;-64
2022/07/11 09:35:41;;;;;;;1.73;0.82;;;19.70;99.90;;;;;;4966597;28;20118;-65
2022/07/11 09:38:10;;;;;;;1.05;0.73;;;19.90;99.90;;;;;;4964322;28;20074;-65
2022/07/11 09:40:36;;;;;;;0.93;0.70;;;20.00;99.90;;;;;;4973298;28;20399;-64
2022/07/11 09:43:03;;;;;;;1.00;0.80;;;20.10;99.90;;;;;;4973207;28;20027;-65
2022/07/11 09:45:31;;;;;;;0.68;0.47;;;20.20;99.90;;;;;;4971227;28;20050;-65
2022/07/11 09:48:00;;;;;;;0.70;0.55;;;20.10;99.90;;;;;;4988025;28;20054;-65
2022/07/11 09:50:28;;;;;;;1.05;0.90;;;20.00;99.90;;;;;;4958448;28;20574;-65
2022/07/11 09:53:20;;;;;;;2.03;0.73;;;20.00;99.90;;;;;;4954870;28;20495;-65
2022/07/11 09:55:46;;;;;;;1.30;0.68;;;19.90;99.90;;;;;;4962461;28;20047;-65
2022/07/11 09:58:14;;;;;;;0.85;0.57;;;19.80;99.90;;;;;;4965827;28;20419;-65
2022/07/11 10:00:41;;;;;;;1.13;0.82;;;19.90;99.90;;;;;;4963626;28;20037;-64
2022/07/11 10:03:08;;;;;;;0.73;0.73;;;20.10;99.90;;;;;;4984082;28;20097;-65
2022/07/11 10:05:35;;;;;;;0.68;0.60;;;20.30;99.90;;;;;;4975052;28;20101;-65
2022/07/11 10:08:01;;;;;;;0.75;0.75;;;20.30;99.90;;;;;;4973765;28;20046;-65
2022/07/11 10:10:29;;;;;;;0.80;0.73;;;20.20;99.90;;;;;;4964497;28;20039;-65
2022/07/11 10:12:56;;;;;;;1.05;0.82;;;20.20;99.90;;;;;;4965013;28;20082;-65
2022/07/11 10:15:32;;;;;;;2.03;0.77;;;20.10;99.90;;;;;;4968646;28;20050;-65
2022/07/11 10:18:06;;;;;;;0.57;0.50;;;20.00;99.90;;;;;;4964977;28;20117;-65
2022/07/11 10:20:53;;;;;;;1.75;0.77;;;19.90;99.90;;;;;;4960940;28;20254;-65
2022/07/11 10:23:24;;;;;;;1.40;0.73;;;19.70;99.90;;;;;;4968145;28;20152;-65
2022/07/11 10:26:20;;;;;;;0.70;0.65;;;19.60;99.90;;;;;;4970768;28;20206;-65
2022/07/11 10:28:52;;;;;;;3.67;0.70;;;19.70;99.90;;;;;;4965375;28;20031;-65
2022/07/11 10:31:19;;;;;;;1.33;1.10;;;19.80;99.90;;;;;;4963769;28;20089;-64
2022/07/11 10:34:03;;;;;;;0.80;0.80;;;19.90;99.90;;;;;;4967736;28;20045;-65
2022/07/11 10:36:31;;;;;;;0.77;0.77;;;20.10;99.90;;;;;;4970311;28;20061;-65
2022/07/11 10:39:38;;;;;;;0.70;0.70;;;20.30;99.90;;;;;;4972663;28;20039;-65
2022/07/11 10:42:18;;;;;;;0.90;0.60;;;20.50;99.90;;;;;;4963275;28;20514;-64
2022/07/11 10:44:52;;;;;;;0.68;0.68;;;20.60;99.90;;;;;;4971075;28;20054;-65
2022/07/11 10:47:41;;;;;;;0.70;0.65;;;20.70;99.90;;;;;;4972807;28;20053;-65
2022/07/11 10:50:19;;;;;;;0.50;0.50;;;20.80;99.90;;;;;;4966563;28;20067;-65
2022/07/11 10:52:48;;;;;;;0.70;0.60;;;20.80;99.90;;;;;;4963399;28;20041;-65
2022/07/11 10:55:31;;;;;;;0.60;0.60;;;20.90;99.90;;;;;;4966256;28;20510;-65
2022/07/11 10:58:21;;;;;;;0.65;0.63;;;20.90;99.90;;;;;;4960863;28;20031;-65
2022/07/11 11:00:48;;;;;;;0.65;0.63;;;21.00;99.90;;;;;;4965950;28;20035;-65
2022/07/11 11:03:17;;;;;;;0.75;0.73;;;21.10;99.90;;;;;;4962467;28;20110;-65
2022/07/11 11:05:49;;;;;;;0.90;0.90;;;21.20;99.90;;;;;;4965433;28;20121;-64
2022/07/11 11:08:35;;;;;;;0.85;0.85;;;21.30;99.90;;;;;;4965434;28;20097;-65
2022/07/11 11:11:35;;;;;;;1.27;1.00;;;21.20;99.90;;;;;;4968175;28;20043;-64
2022/07/11 11:14:15;;;;;;;1.25;0.98;;;21.20;99.90;;;;;;4963351;28;20050;-64
2022/07/11 11:16:41;;;;;;;0.88;0.60;;;21.30;99.90;;;;;;4960940;28;20134;-64
2022/07/11 11:19:27;;;;;;;0.65;0.63;;;21.50;99.90;;;;;;4960880;28;20090;-64
2022/07/11 11:22:03;;;;;;;0.75;0.75;;;21.60;99.90;;;;;;4961582;28;20031;-64
2022/07/11 11:24:29;;;;;;;0.63;0.50;;;21.70;99.90;;;;;;4964925;28;20143;-64
2022/07/11 11:26:59;;;;;;;0.90;0.70;;;21.60;99.90;;;;;;4967754;28;20035;-64
2022/07/11 11:29:26;;;;;;;0.88;0.73;;;21.70;99.90;;;;;;4961991;28;20047;-64
2022/07/11 11:31:57;;;;;;;0.98;0.60;;;21.90;99.90;;;;;;4964490;28;20443;-64
2022/07/11 11:34:23;;;;;;;0.73;0.63;;;21.90;99.90;;;;;;4964338;28;20042;-64
2022/07/11 11:36:57;;;;;;;0.60;0.60;;;21.80;99.90;;;;;;4962195;28;20495;-64
2022/07/11 11:39:33;;;;;;;1.90;0.85;;;21.80;99.90;;;;;;4954795;28;20067;-64
2022/07/11 11:42:07;;;;;;;1.75;0.90;;;21.80;99.90;;;;;;4961925;28;20488;-63
2022/07/11 11:44:34;;;;;;;1.35;1.00;;;21.90;99.90;;;;;;4964829;28;20511;-64
2022/07/11 11:47:00;;;;;;;1.17;1.08;;;21.90;99.90;;;;;;4956570;28;20043;-64
2022/07/11 11:49:25;;;;;;;0.88;0.80;;;21.90;99.90;;;;;;4957157;28;20248;-64
2022/07/11 11:51:54;;;;;;;1.65;0.93;;;22.30;99.90;;;;;;4974421;28;20198;-64
2022/07/11 11:54:25;;;;;;;1.52;0.90;;;22.50;99.90;;;;;;4971552;28;20121;-64
2022/07/11 11:56:51;;;;;;;2.35;0.90;;;22.50;99.90;;;;;;4969388;28;20054;-64
2022/07/11 11:59:17;;;;;;;0.93;0.93;;;22.70;99.90;;;;;;4970599;28;20030;-64
2022/07/11 12:01:47;;;;;;;0.70;0.70;;;22.70;99.90;;;;;;4967630;28;20118;-64
2022/07/11 12:04:16;;;;;;;0.90;0.80;;;22.70;99.90;;;;;;4952242;29;20035;-64
2022/07/11 12:06:45;;;;;;;1.83;0.80;;;22.60;99.90;;;;;;4953157;28;20038;-64
2022/07/11 12:09:15;;;;;;;1.45;0.60;;;22.70;99.90;;;;;;4962846;28;20502;-64
2022/07/11 12:11:43;;;;;;;1.45;0.80;;;22.50;99.90;;;;;;4979607;28;20046;-64
2022/07/11 12:14:10;;;;;;;2.50;0.70;;;22.40;99.90;;;;;;4968566;28;20456;-64
2022/07/11 12:16:48;;;;;;;0.75;0.70;;;22.50;99.90;;;;;;4973518;28;20035;-64
2022/07/11 12:19:18;;;;;;;0.60;0.60;;;22.40;99.90;;;;;;4975325;28;20043;-64
2022/07/11 12:21:47;;;;;;;2.80;0.68;;;22.50;99.90;;;;;;4975191;28;20407;-64
2022/07/11 12:24:17;;;;;;;0.85;0.80;;;22.40;99.90;;;;;;4967745;28;20046;-64
2022/07/11 12:26:43;;;;;;;0.70;0.70;;;22.20;99.90;;;;;;4977164;28;20121;-64
2022/07/11 12:29:16;;;;;;;1.08;0.98;;;22.10;99.90;;;;;;4971564;28;20038;-64
2022/07/11 12:31:57;;;;;;;1.05;0.80;;;22.00;99.90;;;;;;4972963;28;20126;-64
2022/07/11 12:34:25;;;;;;;0.87;0.80;;;22.00;99.90;;;;;;4974597;28;20046;-65
2022/07/11 12:37:00;;;;;;;1.33;0.90;;;22.10;99.90;;;;;;4974504;28;20100;-64
2022/07/11 12:39:29;;;;;;;0.98;0.90;;;22.10;99.90;;;;;;4974808;28;20103;-64
2022/07/11 12:41:56;;;;;;;1.40;1.05;;;22.10;99.90;;;;;;4982355;28;20050;-64
2022/07/11 12:47:17;;;;;;;1.20;1.00;;;22.10;99.90;;;;;;4966155;28;20043;-64
2022/07/11 12:49:45;;;;;;;1.20;1.10;;;22.10;99.90;;;;;;4974479;28;20463;-64
2022/07/11 12:52:12;;;;;;;1.20;1.10;;;22.00;99.90;;;;;;4974364;28;20122;-64
2022/07/11 12:54:39;;;;;;;1.65;1.02;;;21.90;99.90;;;;;;4971610;28;20054;-64
2022/07/11 12:57:06;;;;;;;1.38;1.10;;;21.80;99.90;;;;;;4973970;28;20511;-64
2022/07/11 12:59:33;;;;;;;1.25;1.00;;;21.70;99.90;;;;;;4974163;28;20047;-65
2022/07/11 13:02:01;;;;;;;2.05;1.20;;;21.80;99.90;;;;;;4974130;28;20522;-64
2022/07/11 13:04:30;;;;;;;1.42;1.33;;;22.00;99.90;;;;;;4970451;28;20037;-64
2022/07/11 13:09:40;;;;;;;1.30;1.20;;;22.20;99.90;;;;;;4974289;28;20051;-64
2022/07/11 13:12:06;;;;;;;1.42;1.20;;;22.10;99.90;;;;;;4974094;28;20038;-64
2022/07/11 13:17:17;;;;;;;2.08;0.90;;;22.20;99.90;;;;;;4974318;28;20055;-64
2022/07/11 13:19:42;;;;;;;1.27;0.85;;;22.50;99.90;;;;;;4974260;28;20041;-64
2022/07/11 13:22:08;;;;;;;0.93;0.85;;;22.60;99.90;;;;;;4963191;28;20027;-64
2022/07/11 13:24:34;;;;;;;3.80;1.20;;;22.70;99.90;;;;;;4975461;28;20043;-64
2022/07/11 13:27:00;;;;;;;0.82;0.82;;;22.70;99.90;;;;;;4973581;28;20121;-64
2022/07/11 13:29:26;;;;;;;3.13;0.90;;;22.80;99.90;;;;;;4972016;28;20109;-64
2022/07/11 13:31:51;;;;;;;0.90;0.90;;;22.90;99.90;;;;;;4967010;28;20043;-64
2022/07/11 13:34:17;;;;;;;2.25;1.20;;;23.00;99.90;;;;;;4970235;28;20047;-64
2022/07/11 13:36:43;;;;;;;1.17;1.10;;;23.10;99.90;;;;;;4971694;28;20085;-64
2022/07/11 13:39:08;;;;;;;0.93;0.93;;;23.10;99.90;;;;;;4967174;28;20072;-64
2022/07/11 13:41:35;;;;;;;1.05;0.93;;;23.00;99.90;;;;;;4974518;28;20138;-65
2022/07/11 13:44:01;;;;;;;1.17;0.95;;;23.00;99.90;;;;;;4973931;28;20081;-64
2022/07/11 13:46:26;;;;;;;1.13;1.10;;;23.00;99.90;;;;;;4967701;28;20073;-64
2022/07/11 13:48:52;;;;;;;1.10;1.10;;;22.90;99.90;;;;;;4965245;28;20486;-64
2022/07/11 13:51:17;;;;;;;2.42;0.85;;;22.80;99.90;;;;;;4973315;28;20047;-63
2022/07/11 13:53:43;;;;;;;1.75;1.27;;;23.00;99.90;;;;;;4971207;28;20041;-64
2022/07/11 13:56:09;;;;;;;1.77;1.00;;;23.10;99.90;;;;;;4975762;28;20619;-64
2022/07/11 13:58:34;;;;;;;0.85;0.80;;;23.10;99.90;;;;;;4975040;28;20121;-64
2022/07/11 14:01:00;;;;;;;1.33;1.23;;;23.50;99.90;;;;;;4973428;28;20042;-64
2022/07/11 14:03:26;;;;;;;3.00;1.13;;;23.70;99.90;;;;;;4975373;28;20034;-64
2022/07/11 14:05:52;;;;;;;1.95;1.10;;;23.50;99.90;;;;;;4986360;28;20117;-64
2022/07/11 14:08:18;;;;;;;1.08;0.95;;;23.40;99.90;;;;;;4973353;28;20537;-64
2022/07/11 14:10:44;;;;;;;1.00;0.90;;;23.10;99.90;;;;;;4973982;28;20510;-64
2022/07/11 14:13:09;;;;;;;2.92;1.10;;;23.10;99.90;;;;;;5005942;23;20049;-70
2022/07/11 14:15:35;;;;;;;2.05;1.10;;;23.10;99.90;;;;;;4971776;28;20054;-70
2022/07/11 14:18:01;;;;;;;1.65;1.10;;;23.00;99.90;;;;;;4971834;28;20042;-70
2022/07/11 14:20:26;;;;;;;2.00;1.83;;;23.00;99.90;;;;;;4977799;28;20043;-67
2022/07/11 14:22:52;;;;;;;1.23;1.10;;;23.00;99.90;;;;;;4959616;28;20034;-67
2022/07/11 14:25:18;;;;;;;1.40;1.30;;;23.10;99.90;;;;;;4952013;28;20542;-68
2022/07/11 14:27:44;;;;;;;3.63;1.20;;;23.20;99.90;;;;;;4953634;28;20130;-70
2022/07/11 14:30:09;;;;;;;1.75;1.15;;;23.40;99.90;;;;;;4958256;28;20039;-71
2022/07/11 14:32:35;;;;;;;1.20;1.10;;;23.40;99.90;;;;;;4951309;28;20406;-69
2022/07/11 14:35:01;;;;;;;1.38;0.90;;;23.20;99.90;;;;;;4953609;28;20043;-69
2022/07/11 14:37:26;;;;;;;2.67;1.20;;;23.10;99.90;;;;;;4967686;28;20053;-67
2022/07/11 14:39:52;;;;;;;2.83;1.00;;;22.90;99.90;;;;;;4951521;28;20399;-71
2022/07/11 14:42:18;;;;;;;2.13;1.20;;;22.70;99.90;;;;;;4951502;28;20125;-70
2022/07/11 14:44:43;;;;;;;1.40;1.30;;;22.60;99.90;;;;;;4957638;28;20031;-70
2022/07/11 14:47:09;;;;;;;1.58;1.10;;;22.60;99.90;;;;;;4951928;28;20043;-71
2022/07/11 14:49:35;;;;;;;1.73;1.20;;;22.70;99.90;;;;;;4953264;29;20039;-70
2022/07/11 14:52:01;;;;;;;2.08;1.50;;;22.50;99.90;;;;;;4956071;28;20039;-70
2022/07/11 14:54:27;;;;;;;1.75;1.30;;;22.50;99.90;;;;;;4963280;28;20260;-68
2022/07/11 14:56:52;;;;;;;1.50;1.40;;;22.50;99.90;;;;;;4958515;28;20059;-69
2022/07/11 14:59:18;;;;;;;1.27;1.20;;;22.50;99.90;;;;;;4951496;28;20039;-69
2022/07/11 15:01:44;;;;;;;2.13;1.40;;;22.60;99.90;;;;;;4954698;28;20027;-69
2022/07/11 15:04:09;;;;;;;1.85;1.30;;;22.60;99.90;;;;;;4952304;28;20492;-68
2022/07/11 15:14:48;;;;;;;2.05;1.58;;;22.60;99.90;;;;;;4965048;28;20039;-69
2022/07/11 15:17:14;;;;;;;3.40;1.48;;;22.50;99.90;;;;;;4959815;28;20043;-69
2022/07/11 15:19:40;;;;;;;1.48;1.33;;;22.40;99.90;;;;;;4960505;28;20105;-69
2022/07/11 15:22:06;;;;;;;2.35;1.48;;;22.60;99.90;;;;;;4951295;28;20031;-69